createdAt,value
2022-11-24T00:01:17.921Z,6.20
2022-11-24T00:03:46.140Z,6.18
2022-11-24T00:06:16.099Z,6.18
2022-11-24T00:08:45.856Z,6.15
2022-11-24T00:11:15.309Z,6.15
2022-11-24T00:13:42.876Z,6.13
2022-11-24T00:16:18.285Z,6.13
2022-11-24T00:18:48.125Z,6.10
2022-11-24T00:21:16.346Z,6.06
2022-11-24T00:23:43.358Z,6.04
2022-11-24T00:26:16.070Z,6.01
2022-11-24T00:28:44.209Z,5.97
2022-11-24T00:31:34.442Z,5.96
2022-11-24T00:34:04.060Z,5.93
2022-11-24T00:36:32.975Z,5.91
2022-11-24T00:39:02.448Z,5.85
2022-11-24T00:41:29.921Z,5.81
2022-11-24T00:43:57.421Z,5.79
2022-11-24T00:46:25.016Z,5.77
2022-11-24T00:48:54.179Z,5.75
2022-11-24T00:51:23.845Z,5.73
2022-11-24T00:53:50.770Z,5.72
2022-11-24T00:56:17.321Z,5.70
2022-11-24T00:58:43.916Z,5.68
2022-11-24T01:01:16.835Z,5.66
2022-11-24T01:03:44.015Z,5.64
2022-11-24T01:06:14.412Z,5.62
2022-11-24T01:08:41.615Z,5.58
2022-11-24T01:11:12.769Z,5.57
2022-11-24T01:13:40.156Z,5.55
2022-11-24T01:16:07.522Z,5.51
2022-11-24T01:18:34.190Z,5.50
2022-11-24T01:21:09.622Z,5.48
2022-11-24T01:23:36.568Z,5.47
2022-11-24T01:26:12.596Z,5.45
2022-11-24T01:28:44.886Z,5.45
2022-11-24T01:31:13.758Z,5.45
2022-11-24T01:33:40.478Z,5.45
2022-11-24T01:36:07.176Z,5.43
2022-11-24T01:38:33.800Z,5.42
2022-11-24T01:41:06.255Z,5.42
2022-11-24T01:43:33.145Z,5.42
2022-11-24T01:46:15.212Z,5.43
2022-11-24T01:48:45.240Z,5.42
2022-11-24T01:51:16.214Z,5.43
2022-11-24T01:53:47.266Z,5.41
2022-11-24T01:56:14.202Z,5.41
2022-11-24T01:58:44.480Z,5.42
2022-11-24T02:01:11.659Z,5.40
2022-11-24T02:03:42.063Z,5.39
2022-11-24T02:06:14.018Z,5.41
2022-11-24T02:08:49.371Z,5.41
2022-11-24T02:11:16.068Z,5.40
2022-11-24T02:13:44.204Z,5.41
2022-11-24T02:16:12.505Z,5.39
2022-11-24T02:18:42.071Z,5.40
2022-11-24T02:21:11.498Z,5.40
2022-11-24T02:23:55.558Z,5.41
2022-11-24T02:26:35.006Z,5.39
2022-11-24T02:29:02.344Z,5.38
2022-11-24T02:31:29.088Z,5.39
2022-11-24T02:33:56.128Z,5.39
2022-11-24T02:36:22.717Z,5.37
2022-11-24T02:38:49.353Z,5.38
2022-11-24T02:41:22.599Z,5.39
2022-11-24T02:43:59.303Z,5.34
2022-11-24T02:46:26.054Z,5.31
2022-11-24T02:48:52.807Z,5.29
2022-11-24T02:51:19.778Z,5.27
2022-11-24T02:53:46.338Z,5.27
2022-11-24T02:56:12.910Z,5.26
2022-11-24T02:58:39.657Z,5.26
2022-11-24T03:01:06.360Z,5.25
2022-11-24T03:03:33.388Z,5.24
2022-11-24T03:06:00.047Z,5.23
2022-11-24T03:08:26.599Z,5.24
2022-11-24T03:10:53.225Z,5.22
2022-11-24T03:13:19.832Z,5.21
2022-11-24T03:15:46.446Z,5.21
2022-11-24T03:18:13.124Z,5.21
2022-11-24T03:20:39.720Z,5.21
2022-11-24T03:23:06.317Z,5.20
2022-11-24T03:25:32.914Z,5.19
2022-11-24T03:27:59.601Z,5.19
2022-11-24T03:30:26.273Z,5.20
2022-11-24T03:32:56.147Z,5.18
2022-11-24T03:35:23.215Z,5.19
2022-11-24T03:37:49.898Z,5.19
2022-11-24T03:40:18.021Z,5.19
2022-11-24T03:42:44.633Z,5.17
2022-11-24T03:45:37.996Z,5.18
2022-11-24T03:47:57.995Z,5.17
2022-11-24T03:50:24.609Z,5.17
2022-11-24T03:52:51.223Z,5.17
2022-11-24T03:55:17.826Z,5.15
2022-11-24T03:57:44.443Z,5.12
2022-11-24T04:00:11.953Z,5.09
2022-11-24T04:02:38.838Z,5.10
2022-11-24T04:05:06.234Z,5.09
2022-11-24T04:07:32.888Z,5.07
2022-11-24T04:09:59.557Z,5.06
2022-11-24T04:12:44.723Z,5.04
2022-11-24T04:15:14.078Z,5.03
2022-11-24T04:17:41.077Z,5.00
2022-11-24T04:20:08.569Z,5.00
2022-11-24T04:22:35.906Z,4.99
2022-11-24T04:25:03.689Z,4.97
2022-11-24T04:27:30.621Z,4.97
2022-11-24T04:29:57.246Z,4.95
2022-11-24T04:32:23.830Z,4.94
2022-11-24T04:34:50.438Z,4.98
2022-11-24T04:37:17.055Z,4.99
2022-11-24T04:39:44.000Z,5.00
2022-11-24T04:42:10.584Z,5.01
2022-11-24T04:44:37.378Z,5.04
2022-11-24T04:47:04.234Z,5.03
2022-11-24T04:49:30.871Z,5.07
2022-11-24T04:51:57.505Z,5.12
2022-11-24T04:54:24.149Z,5.15
2022-11-24T04:56:52.129Z,5.16
2022-11-24T04:59:19.918Z,5.18
2022-11-24T05:01:47.401Z,5.17
2022-11-24T05:04:15.976Z,5.18
2022-11-24T05:06:42.663Z,5.18
2022-11-24T05:09:13.591Z,5.19
2022-11-24T05:11:40.138Z,5.23
2022-11-24T05:14:06.778Z,5.22
2022-11-24T05:16:33.454Z,5.22
2022-11-24T05:19:00.127Z,5.23
2022-11-24T05:21:28.076Z,5.23
2022-11-24T05:23:54.642Z,5.26
2022-11-24T05:26:21.563Z,5.28
2022-11-24T05:28:48.162Z,5.29
2022-11-24T05:31:14.737Z,5.30
2022-11-24T05:33:43.372Z,5.28
2022-11-24T05:36:30.356Z,5.30
2022-11-24T05:38:57.226Z,5.27
2022-11-24T05:41:23.867Z,5.27
2022-11-24T05:43:50.489Z,5.28
2022-11-24T05:46:17.301Z,5.25
2022-11-24T05:48:44.035Z,5.26
2022-11-24T05:51:10.659Z,5.23
2022-11-24T05:53:37.227Z,5.22
2022-11-24T05:56:04.411Z,5.22
2022-11-24T05:58:31.043Z,5.21
2022-11-24T06:00:57.583Z,5.20
2022-11-24T06:03:24.175Z,5.20
2022-11-24T06:05:50.802Z,5.17
2022-11-24T06:08:17.399Z,5.17
2022-11-24T06:10:43.974Z,5.15
2022-11-24T06:13:10.632Z,5.15
2022-11-24T06:15:37.848Z,5.12
2022-11-24T06:18:04.662Z,5.12
2022-11-24T06:20:32.910Z,5.12
2022-11-24T06:23:00.231Z,5.12
2022-11-24T06:25:27.162Z,5.09
2022-11-24T06:27:53.718Z,5.09
2022-11-24T06:30:20.308Z,5.05
2022-11-24T06:32:49.647Z,5.06
2022-11-24T06:35:16.989Z,5.07
2022-11-24T06:37:43.655Z,5.06
2022-11-24T06:40:10.513Z,5.09
2022-11-24T06:42:37.721Z,5.12
2022-11-24T06:45:09.035Z,5.13
2022-11-24T06:47:36.723Z,5.14
2022-11-24T06:50:03.664Z,5.15
2022-11-24T06:52:30.217Z,5.17
2022-11-24T06:54:57.349Z,5.17
2022-11-24T06:57:24.050Z,5.18
2022-11-24T06:59:50.786Z,5.19
2022-11-24T07:02:17.319Z,5.20
2022-11-24T07:04:43.913Z,5.20
2022-11-24T07:07:10.603Z,5.22
2022-11-24T07:09:37.212Z,5.22
2022-11-24T07:12:04.947Z,5.22
2022-11-24T07:14:32.302Z,5.20
2022-11-24T07:16:59.086Z,5.21
2022-11-24T07:19:25.731Z,5.18
2022-11-24T07:21:52.327Z,5.18
2022-11-24T07:24:19.001Z,5.18
2022-11-24T07:26:45.781Z,5.18
2022-11-24T07:29:12.346Z,5.20
2022-11-24T07:31:39.217Z,5.17
2022-11-24T07:34:06.363Z,5.21
2022-11-24T07:36:32.895Z,5.23
2022-11-24T07:38:59.759Z,5.23
2022-11-24T07:41:26.448Z,5.25
2022-11-24T07:43:53.172Z,5.27
2022-11-24T07:46:20.725Z,5.29
2022-11-24T07:48:47.451Z,5.31
2022-11-24T07:51:14.372Z,5.34
2022-11-24T07:53:40.918Z,5.36
2022-11-24T07:56:09.099Z,5.35
2022-11-24T07:58:37.129Z,5.37
2022-11-24T08:01:15.152Z,5.41
2022-11-24T08:03:43.050Z,5.40
2022-11-24T08:06:30.118Z,5.40
2022-11-24T08:08:57.931Z,5.41
2022-11-24T08:11:25.268Z,5.39
2022-11-24T08:13:52.129Z,5.39
2022-11-24T08:16:20.126Z,5.40
2022-11-24T08:18:55.199Z,5.44
2022-11-24T08:21:23.325Z,5.43
2022-11-24T08:23:50.199Z,5.46
2022-11-24T08:26:19.325Z,5.49
2022-11-24T08:28:47.186Z,5.51
2022-11-24T08:31:16.486Z,5.56
2022-11-24T08:33:43.473Z,5.61
2022-11-24T08:36:13.045Z,5.64
2022-11-24T08:38:39.638Z,5.66
2022-11-24T08:41:09.103Z,5.69
2022-11-24T08:43:35.830Z,5.71
2022-11-24T08:46:05.415Z,5.73
2022-11-24T08:48:32.915Z,5.74
2022-11-24T08:51:06.123Z,5.78
2022-11-24T08:53:32.717Z,5.81
2022-11-24T08:56:00.587Z,5.79
2022-11-24T08:58:29.189Z,5.82
2022-11-24T09:00:56.050Z,5.82
2022-11-24T09:03:22.802Z,5.85
2022-11-24T09:05:52.111Z,5.85
2022-11-24T09:08:19.269Z,5.87
2022-11-24T09:10:45.830Z,5.87
2022-11-24T09:13:12.591Z,5.88
2022-11-24T09:15:39.166Z,5.89
2022-11-24T09:18:05.749Z,5.89
2022-11-24T09:20:32.342Z,5.95
2022-11-24T09:22:58.951Z,5.98
2022-11-24T09:25:25.618Z,6.01
2022-11-24T09:27:52.481Z,6.04
2022-11-24T09:30:19.190Z,6.06
2022-11-24T09:32:45.809Z,6.10
2022-11-24T09:35:12.393Z,6.12
2022-11-24T09:37:39.063Z,6.13
2022-11-24T09:40:06.271Z,6.12
2022-11-24T09:42:38.703Z,6.13
2022-11-24T09:45:05.606Z,6.16
2022-11-24T09:47:47.532Z,6.16
2022-11-24T09:50:19.355Z,6.14
2022-11-24T09:53:01.104Z,6.16
2022-11-24T09:55:50.061Z,6.20
2022-11-24T09:58:50.901Z,6.22
2022-11-24T10:01:21.384Z,6.22
2022-11-24T10:03:51.075Z,6.24
2022-11-24T10:06:31.594Z,6.27
2022-11-24T10:09:13.265Z,6.28
2022-11-24T10:11:50.702Z,6.26
2022-11-24T10:14:26.995Z,6.26
2022-11-24T10:17:19.307Z,6.23
2022-11-24T10:20:20.376Z,6.23
2022-11-24T10:23:11.388Z,6.22
2022-11-24T10:25:58.224Z,6.22
2022-11-24T10:28:49.110Z,6.23
2022-11-24T10:31:31.395Z,6.23
2022-11-24T10:34:05.888Z,6.22
2022-11-24T10:36:47.357Z,6.23
2022-11-24T10:39:23.839Z,6.24
2022-11-24T10:41:56.633Z,6.23
2022-11-24T10:44:23.448Z,6.23
2022-11-24T10:46:50.736Z,6.24
2022-11-24T10:49:36.075Z,6.29
2022-11-24T10:52:11.838Z,6.30
2022-11-24T10:54:58.094Z,6.32
2022-11-24T10:57:30.594Z,6.39
2022-11-24T10:59:57.423Z,6.41
2022-11-24T11:02:39.420Z,6.45
2022-11-24T11:05:24.118Z,6.50
2022-11-24T11:07:51.007Z,6.50
2022-11-24T11:10:22.087Z,6.53
2022-11-24T11:12:49.085Z,6.56
2022-11-24T11:15:29.955Z,6.53
2022-11-24T11:18:01.201Z,6.51
2022-11-24T11:20:32.555Z,6.54
2022-11-24T11:23:03.344Z,6.56
2022-11-24T11:25:34.200Z,6.54
2022-11-24T11:28:19.693Z,6.58
2022-11-24T11:31:17.393Z,6.60
2022-11-24T11:34:05.518Z,6.63
2022-11-24T11:36:39.375Z,6.64
2022-11-24T11:39:06.564Z,6.67
2022-11-24T11:41:37.012Z,6.66
2022-11-24T11:44:38.779Z,6.71
2022-11-24T11:47:36.181Z,6.72
2022-11-24T11:50:05.658Z,6.74
2022-11-24T11:53:03.247Z,6.77
2022-11-24T11:55:32.806Z,6.77
2022-11-24T11:58:12.557Z,6.79
2022-11-24T12:00:46.933Z,6.86
2022-11-24T12:03:33.552Z,6.90
2022-11-24T12:06:24.961Z,6.95
2022-11-24T12:09:23.714Z,6.95
2022-11-24T12:12:23.445Z,6.95
2022-11-24T12:14:59.507Z,6.96
2022-11-24T12:17:40.211Z,6.96
2022-11-24T12:20:41.462Z,6.96
2022-11-24T12:23:32.316Z,6.96
2022-11-24T12:26:28.529Z,6.95
2022-11-24T12:29:20.314Z,6.92
2022-11-24T12:32:05.996Z,6.93
2022-11-24T12:35:09.444Z,6.93
2022-11-24T12:37:56.248Z,6.94
2022-11-24T12:41:06.411Z,6.95
2022-11-24T12:43:50.293Z,6.96
2022-11-24T12:46:26.753Z,6.98
2022-11-24T12:49:24.112Z,6.97
2022-11-24T12:52:01.506Z,7.01
2022-11-24T12:54:38.244Z,7.00
2022-11-24T12:57:34.361Z,7.04
2022-11-24T13:00:08.786Z,7.02
2022-11-24T13:02:52.295Z,6.99
2022-11-24T13:05:33.280Z,6.97
2022-11-24T13:08:05.498Z,6.96
2022-11-24T13:10:59.101Z,6.96
2022-11-24T13:14:00.690Z,6.95
2022-11-24T13:16:40.818Z,6.92
2022-11-24T13:19:22.584Z,6.93
2022-11-24T13:22:12.079Z,6.90
2022-11-24T13:24:41.296Z,6.89
2022-11-24T13:27:13.865Z,6.90
2022-11-24T13:29:43.274Z,6.91
2022-11-24T13:32:11.733Z,6.93
2022-11-24T13:34:43.047Z,6.92
2022-11-24T13:37:35.802Z,6.94
2022-11-24T13:40:22.911Z,6.97
2022-11-24T13:43:01.615Z,6.96
2022-11-24T13:45:40.951Z,6.98
2022-11-24T13:48:20.817Z,6.99
2022-11-24T13:50:51.766Z,6.98
2022-11-24T13:53:30.172Z,6.98
2022-11-24T13:56:21.775Z,6.98
2022-11-24T13:58:51.814Z,7.00
2022-11-24T14:01:23.748Z,6.98
2022-11-24T14:04:30.576Z,7.01
2022-11-24T14:07:08.701Z,7.00
2022-11-24T14:09:48.243Z,7.03
2022-11-24T14:12:20.667Z,7.03
2022-11-24T14:15:20.931Z,7.05
2022-11-24T14:17:47.716Z,7.04
2022-11-24T14:20:25.430Z,7.04
2022-11-24T14:22:52.483Z,7.03
2022-11-24T14:25:21.020Z,7.05
2022-11-24T14:27:50.374Z,7.04
2022-11-24T14:30:21.472Z,7.06
2022-11-24T14:33:03.074Z,7.08
2022-11-24T14:35:35.733Z,7.11
2022-11-24T14:38:04.847Z,7.11
2022-11-24T14:40:37.754Z,7.11
2022-11-24T14:43:08.524Z,7.11
2022-11-24T14:45:35.432Z,7.10
2022-11-24T14:48:02.103Z,7.12
2022-11-24T14:50:29.039Z,7.13
2022-11-24T14:52:59.832Z,7.14
2022-11-24T14:55:35.382Z,7.14
2022-11-24T14:58:02.203Z,7.14
2022-11-24T15:00:31.741Z,7.14
2022-11-24T15:03:01.304Z,7.12
2022-11-24T15:05:59.358Z,7.12
2022-11-24T15:08:36.433Z,7.09
2022-11-24T15:11:09.261Z,7.08
2022-11-24T15:13:40.785Z,7.05
2022-11-24T15:16:20.821Z,7.07
2022-11-24T15:18:56.955Z,7.07
2022-11-24T15:21:37.352Z,7.08
2022-11-24T15:24:18.594Z,7.07
2022-11-24T15:26:46.859Z,7.04
2022-11-24T15:29:14.048Z,7.08
2022-11-24T15:31:43.316Z,7.08
2022-11-24T15:34:15.782Z,7.09
2022-11-24T15:36:42.573Z,7.08
2022-11-24T15:39:09.686Z,7.10
2022-11-24T15:41:37.543Z,7.10
2022-11-24T15:44:04.844Z,7.09
2022-11-24T15:46:38.443Z,7.10
2022-11-24T15:49:06.193Z,7.11
2022-11-24T15:51:33.674Z,7.08
2022-11-24T15:54:01.552Z,7.08
2022-11-24T15:56:34.180Z,7.07
2022-11-24T15:59:02.337Z,7.07
2022-11-24T16:01:32.879Z,7.08
2022-11-24T16:04:01.063Z,7.08
2022-11-24T16:06:27.935Z,7.07
2022-11-24T16:08:54.900Z,7.06
2022-11-24T16:11:22.942Z,7.05
2022-11-24T16:13:53.041Z,7.05
2022-11-24T16:16:24.201Z,7.05
2022-11-24T16:18:50.985Z,7.03
2022-11-24T16:21:18.122Z,7.03
2022-11-24T16:23:46.176Z,7.04
2022-11-24T16:26:12.938Z,7.02
2022-11-24T16:28:39.679Z,7.03
2022-11-24T16:31:06.421Z,7.04
2022-11-24T16:33:33.107Z,7.02
2022-11-24T16:36:02.397Z,6.99
2022-11-24T16:38:29.910Z,7.01
2022-11-24T16:40:57.123Z,7.01
2022-11-24T16:43:27.008Z,7.00
2022-11-24T16:46:21.498Z,7.02
2022-11-24T16:48:50.532Z,7.01
2022-11-24T16:51:18.388Z,6.99
2022-11-24T16:53:45.785Z,6.97
2022-11-24T16:56:14.492Z,6.98
2022-11-24T16:58:41.232Z,6.98
2022-11-24T17:01:11.258Z,6.96
2022-11-24T17:03:38.794Z,6.95
2022-11-24T17:06:08.886Z,6.93
2022-11-24T17:08:37.941Z,6.91
2022-11-24T17:11:08.950Z,6.92
2022-11-24T17:13:35.786Z,6.92
2022-11-24T17:16:07.304Z,6.95
2022-11-24T17:18:37.389Z,6.96
2022-11-24T17:21:09.585Z,6.99
2022-11-24T17:23:38.219Z,7.00
2022-11-24T17:26:08.054Z,7.02
2022-11-24T17:28:37.909Z,7.04
2022-11-24T17:31:25.345Z,7.07
2022-11-24T17:33:54.841Z,7.08
2022-11-24T17:36:24.142Z,7.08
2022-11-24T17:38:51.276Z,7.10
2022-11-24T17:41:22.282Z,7.11
2022-11-24T17:43:51.269Z,7.10
2022-11-24T17:46:18.759Z,7.08
2022-11-24T17:48:48.328Z,7.09
2022-11-24T17:51:19.490Z,7.11
2022-11-24T17:53:49.560Z,7.05
2022-11-24T17:56:24.662Z,7.08
2022-11-24T17:58:56.744Z,7.08
2022-11-24T18:01:24.085Z,7.05
2022-11-24T18:03:53.610Z,7.08
2022-11-24T18:06:24.207Z,7.08
2022-11-24T18:08:51.773Z,7.08
2022-11-24T18:11:31.000Z,7.08
2022-11-24T18:14:03.674Z,7.07
2022-11-24T18:16:35.721Z,7.07
2022-11-24T18:19:09.955Z,7.04
2022-11-24T18:21:40.932Z,7.03
2022-11-24T18:24:12.077Z,7.04
2022-11-24T18:26:44.324Z,7.04
2022-11-24T18:29:12.323Z,7.07
2022-11-24T18:31:39.279Z,7.09
2022-11-24T18:34:07.312Z,7.09
2022-11-24T18:36:35.148Z,7.08
2022-11-24T18:39:06.420Z,7.08
2022-11-24T18:41:33.505Z,7.09
2022-11-24T18:44:03.481Z,7.08
2022-11-24T18:46:30.181Z,7.05
2022-11-24T18:48:57.595Z,7.05
2022-11-24T18:51:24.348Z,7.03
2022-11-24T18:53:58.186Z,7.03
2022-11-24T18:56:25.723Z,7.01
2022-11-24T18:58:56.053Z,7.01
2022-11-24T19:01:28.239Z,7.01
2022-11-24T19:03:58.706Z,7.00
2022-11-24T19:06:37.224Z,6.97
2022-11-24T19:09:11.390Z,6.96
2022-11-24T19:11:41.131Z,6.94
2022-11-24T19:14:11.313Z,6.94
2022-11-24T19:16:38.345Z,6.94
2022-11-24T19:19:05.777Z,6.94
2022-11-24T19:21:34.727Z,6.96
2022-11-24T19:24:05.268Z,6.95
2022-11-24T19:26:37.732Z,6.93
2022-11-24T19:29:05.775Z,6.94
2022-11-24T19:31:35.881Z,6.93
2022-11-24T19:34:03.718Z,6.92
2022-11-24T19:36:30.969Z,6.93
2022-11-24T19:38:58.983Z,6.89
2022-11-24T19:41:28.562Z,6.92
2022-11-24T19:43:55.824Z,6.91
2022-11-24T19:46:27.174Z,6.87
2022-11-24T19:48:57.349Z,6.90
2022-11-24T19:51:30.992Z,6.83
2022-11-24T19:53:58.215Z,6.86
2022-11-24T19:56:27.683Z,6.84
2022-11-24T19:58:55.556Z,6.82
2022-11-24T20:01:27.274Z,6.83
2022-11-24T20:03:58.838Z,6.82
2022-11-24T20:06:28.000Z,6.80
2022-11-24T20:08:55.064Z,6.80
2022-11-24T20:11:22.379Z,6.78
2022-11-24T20:13:49.979Z,6.77
2022-11-24T20:16:20.122Z,6.78
2022-11-24T20:18:47.829Z,6.77
2022-11-24T20:21:17.966Z,6.78
2022-11-24T20:23:46.822Z,6.77
2022-11-24T20:26:19.909Z,6.78
2022-11-24T20:28:47.465Z,6.80
2022-11-24T20:31:20.208Z,6.83
2022-11-24T20:33:47.605Z,6.82
2022-11-24T20:36:16.862Z,6.86
2022-11-24T20:38:44.747Z,6.85
2022-11-24T20:41:16.951Z,6.87
2022-11-24T20:43:44.478Z,6.89
2022-11-24T20:46:22.701Z,6.89
2022-11-24T20:48:49.729Z,6.91
2022-11-24T20:51:26.375Z,6.94
2022-11-24T20:53:56.820Z,6.94
2022-11-24T20:56:36.805Z,6.95
2022-11-24T20:59:04.774Z,6.95
2022-11-24T21:01:40.225Z,6.96
2022-11-24T21:04:09.939Z,6.96
2022-11-24T21:06:37.707Z,6.94
2022-11-24T21:09:05.974Z,6.96
2022-11-24T21:11:32.930Z,6.96
2022-11-24T21:14:00.373Z,6.95
2022-11-24T21:16:32.748Z,6.97
2022-11-24T21:19:03.912Z,6.98
2022-11-24T21:21:34.855Z,6.99
2022-11-24T21:24:07.509Z,7.00
2022-11-24T21:26:39.646Z,7.00
2022-11-24T21:29:08.322Z,7.00
2022-11-24T21:31:39.906Z,7.02
2022-11-24T21:34:07.665Z,7.02
2022-11-24T21:36:40.803Z,7.02
2022-11-24T21:39:07.677Z,7.02
2022-11-24T21:41:34.746Z,7.01
2022-11-24T21:44:03.046Z,7.01
2022-11-24T21:46:38.958Z,7.03
2022-11-24T21:49:09.337Z,7.05
2022-11-24T21:51:35.975Z,7.04
2022-11-24T21:54:05.279Z,7.07
2022-11-24T21:56:32.203Z,7.07
2022-11-24T21:58:58.911Z,7.05
2022-11-24T22:01:28.307Z,7.07
2022-11-24T22:03:57.645Z,7.09
2022-11-24T22:06:24.451Z,7.08
2022-11-24T22:08:51.533Z,7.07
2022-11-24T22:11:23.610Z,7.09
2022-11-24T22:13:51.460Z,7.05
2022-11-24T22:16:23.753Z,7.09
2022-11-24T22:18:51.092Z,7.07
2022-11-24T22:21:22.580Z,7.08
2022-11-24T22:23:54.836Z,7.04
2022-11-24T22:26:23.044Z,7.03
2022-11-24T22:28:52.422Z,7.01
2022-11-24T22:31:21.322Z,6.99
2022-11-24T22:33:48.854Z,6.98
2022-11-24T22:36:18.935Z,6.97
2022-11-24T22:38:47.145Z,6.94
2022-11-24T22:41:17.414Z,6.91
2022-11-24T22:43:45.560Z,6.88
2022-11-24T22:46:14.843Z,6.88
2022-11-24T22:48:42.440Z,6.87
2022-11-24T22:51:17.754Z,6.84
2022-11-24T22:53:52.420Z,6.82
2022-11-24T22:56:19.931Z,6.79
2022-11-24T22:58:47.411Z,6.77
2022-11-24T23:01:20.506Z,6.75
2022-11-24T23:03:48.965Z,6.75
2022-11-24T23:06:28.181Z,6.75
2022-11-24T23:08:55.519Z,6.75
2022-11-24T23:11:30.743Z,6.74
2022-11-24T23:14:03.008Z,6.74
2022-11-24T23:16:30.767Z,6.76
2022-11-24T23:18:59.216Z,6.75
2022-11-24T23:21:31.305Z,6.76
2022-11-24T23:24:03.310Z,6.75
2022-11-24T23:26:34.474Z,6.74
2022-11-24T23:29:02.276Z,6.74
2022-11-24T23:31:29.486Z,6.74
2022-11-24T23:33:58.421Z,6.72
2022-11-24T23:36:25.424Z,6.72
2022-11-24T23:38:52.111Z,6.70
2022-11-24T23:41:22.925Z,6.68
2022-11-24T23:43:50.788Z,6.66
2022-11-24T23:46:20.613Z,6.62
2022-11-24T23:48:49.602Z,6.60
2022-11-24T23:51:18.888Z,6.58
2022-11-24T23:53:46.081Z,6.56
2022-11-24T23:56:16.602Z,6.53
2022-11-24T23:58:43.732Z,6.49
